createdAt,value
2023-01-19T00:00:21.361Z,19.92
2023-01-19T00:02:48.487Z,19.93
2023-01-19T00:05:15.501Z,19.94
2023-01-19T00:07:42.252Z,19.95
2023-01-19T00:10:09.902Z,19.97
2023-01-19T00:12:36.978Z,19.94
2023-01-19T00:15:03.985Z,19.98
2023-01-19T00:17:30.869Z,19.98
2023-01-19T00:19:57.743Z,19.98
2023-01-19T00:22:24.528Z,19.97
2023-01-19T00:24:51.304Z,19.98
2023-01-19T00:27:18.083Z,19.97
2023-01-19T00:29:44.925Z,19.99
2023-01-19T00:32:11.808Z,19.97
2023-01-19T00:34:39.856Z,19.97
2023-01-19T00:37:07.494Z,19.94
2023-01-19T00:39:34.355Z,19.94
2023-01-19T00:42:11.573Z,19.92
2023-01-19T00:44:38.452Z,19.88
2023-01-19T00:47:06.109Z,19.85
2023-01-19T00:49:32.944Z,19.81
2023-01-19T00:51:59.964Z,19.77
2023-01-19T00:54:27.621Z,19.76
2023-01-19T00:56:54.551Z,19.72
2023-01-19T00:59:21.442Z,19.70
2023-01-19T01:01:48.510Z,19.67
2023-01-19T01:04:15.591Z,19.62
2023-01-19T01:06:42.470Z,19.61
2023-01-19T01:09:12.242Z,19.58
2023-01-19T01:11:40.230Z,19.54
2023-01-19T01:14:07.753Z,19.52
2023-01-19T01:16:34.832Z,19.47
2023-01-19T01:19:01.876Z,19.46
2023-01-19T01:21:28.762Z,19.41
2023-01-19T01:23:55.645Z,19.39
2023-01-19T01:26:22.640Z,19.36
2023-01-19T01:28:49.533Z,19.32
2023-01-19T01:31:16.405Z,19.28
2023-01-19T01:33:43.274Z,19.25
2023-01-19T01:36:12.109Z,19.21
2023-01-19T01:38:40.045Z,19.18
2023-01-19T01:41:07.397Z,19.13
2023-01-19T01:43:44.287Z,19.12
2023-01-19T01:46:11.714Z,19.10
2023-01-19T01:48:39.477Z,19.12
2023-01-19T01:51:18.818Z,19.06
2023-01-19T01:53:47.869Z,19.05
2023-01-19T01:56:18.014Z,19.01
2023-01-19T01:58:44.974Z,19.00
2023-01-19T02:01:21.912Z,18.97
2023-01-19T02:03:48.842Z,18.95
2023-01-19T02:06:15.984Z,18.95
2023-01-19T02:08:55.788Z,18.93
2023-01-19T02:11:31.864Z,18.90
2023-01-19T02:13:58.847Z,18.86
2023-01-19T02:16:25.702Z,18.86
2023-01-19T02:18:52.726Z,18.82
2023-01-19T02:21:20.827Z,18.76
2023-01-19T02:23:50.431Z,18.74
2023-01-19T02:26:19.479Z,18.71
2023-01-19T02:28:50.625Z,18.65
2023-01-19T02:31:17.952Z,18.67
2023-01-19T02:33:44.877Z,18.63
2023-01-19T02:36:13.708Z,18.58
2023-01-19T02:38:41.766Z,18.59
2023-01-19T02:41:12.349Z,18.53
2023-01-19T02:43:39.727Z,18.53
2023-01-19T02:46:06.464Z,18.49
2023-01-19T02:48:33.359Z,18.46
2023-01-19T02:51:04.487Z,18.47
2023-01-19T02:53:31.386Z,18.41
2023-01-19T02:56:06.817Z,18.38
2023-01-19T02:58:40.701Z,18.34
2023-01-19T03:01:17.044Z,18.32
2023-01-19T03:03:55.939Z,18.32
2023-01-19T03:06:23.616Z,18.28
2023-01-19T03:08:56.278Z,18.22
2023-01-19T03:11:25.357Z,18.22
2023-01-19T03:13:56.970Z,18.20
2023-01-19T03:16:27.606Z,18.15
2023-01-19T03:18:58.547Z,18.13
2023-01-19T03:21:27.276Z,18.13
2023-01-19T03:23:56.411Z,18.13
2023-01-19T03:26:25.448Z,18.06
2023-01-19T03:28:53.114Z,18.04
2023-01-19T03:31:23.349Z,17.99
2023-01-19T03:33:53.664Z,17.98
2023-01-19T03:36:24.685Z,17.94
2023-01-19T03:38:52.541Z,17.91
2023-01-19T03:41:21.845Z,17.84
2023-01-19T03:43:50.230Z,17.82
2023-01-19T03:46:19.248Z,17.82
2023-01-19T03:48:46.449Z,17.80
2023-01-19T03:51:14.668Z,17.77
2023-01-19T03:53:42.166Z,17.74
2023-01-19T03:56:17.259Z,17.74
2023-01-19T03:58:44.196Z,17.70
2023-01-19T04:01:11.312Z,17.67
2023-01-19T04:03:38.342Z,17.67
2023-01-19T04:06:05.401Z,17.62
2023-01-19T04:08:32.936Z,17.64
2023-01-19T04:10:59.852Z,17.61
2023-01-19T04:13:28.898Z,17.58
2023-01-19T04:15:56.340Z,17.55
2023-01-19T04:18:23.262Z,17.51
2023-01-19T04:20:50.123Z,17.51
2023-01-19T04:23:17.289Z,17.46
2023-01-19T04:25:44.163Z,17.46
2023-01-19T04:28:11.034Z,17.44
2023-01-19T04:30:38.269Z,17.38
2023-01-19T04:33:05.158Z,17.41
2023-01-19T04:35:32.066Z,17.38
2023-01-19T04:37:58.936Z,17.35
2023-01-19T04:40:25.873Z,17.37
2023-01-19T04:42:52.823Z,17.36
2023-01-19T04:45:19.677Z,17.29
2023-01-19T04:47:46.527Z,17.25
2023-01-19T04:50:13.571Z,17.27
2023-01-19T04:52:40.439Z,17.22
2023-01-19T04:55:07.895Z,17.20
2023-01-19T04:57:34.732Z,17.22
2023-01-19T05:00:01.673Z,17.18
2023-01-19T05:02:28.803Z,17.14
2023-01-19T05:04:55.765Z,17.13
2023-01-19T05:07:22.725Z,17.11
2023-01-19T05:09:49.628Z,17.05
2023-01-19T05:12:16.584Z,17.03
2023-01-19T05:14:43.819Z,17.05
2023-01-19T05:17:10.772Z,17.04
2023-01-19T05:19:37.728Z,17.03
2023-01-19T05:22:05.049Z,17.02
2023-01-19T05:24:32.234Z,17.06
2023-01-19T05:26:59.215Z,17.08
2023-01-19T05:29:26.205Z,17.12
2023-01-19T05:31:53.242Z,17.15
2023-01-19T05:34:20.383Z,17.19
2023-01-19T05:36:47.268Z,17.21
2023-01-19T05:39:14.287Z,17.25
2023-01-19T05:41:42.261Z,17.29
2023-01-19T05:44:09.838Z,17.33
2023-01-19T05:46:36.749Z,17.38
2023-01-19T05:49:05.336Z,17.41
2023-01-19T05:51:35.448Z,17.46
2023-01-19T05:54:02.619Z,17.53
2023-01-19T05:56:29.656Z,17.57
2023-01-19T05:58:56.528Z,17.62
2023-01-19T06:01:23.915Z,17.67
2023-01-19T06:03:51.294Z,17.72
2023-01-19T06:06:19.306Z,17.76
2023-01-19T06:08:46.248Z,17.83
2023-01-19T06:11:13.423Z,17.87
2023-01-19T06:13:41.961Z,17.92
2023-01-19T06:16:09.657Z,17.98
2023-01-19T06:18:36.538Z,18.03
2023-01-19T06:21:04.810Z,18.07
2023-01-19T06:23:32.350Z,18.12
2023-01-19T06:25:59.361Z,18.16
2023-01-19T06:28:26.293Z,18.21
2023-01-19T06:30:54.234Z,18.26
2023-01-19T06:33:21.593Z,18.31
2023-01-19T06:35:49.601Z,18.36
2023-01-19T06:38:18.737Z,18.41
2023-01-19T06:40:46.428Z,18.46
2023-01-19T06:43:13.683Z,18.49
2023-01-19T06:45:40.714Z,18.54
2023-01-19T06:48:08.814Z,18.58
2023-01-19T06:50:35.809Z,18.63
2023-01-19T06:53:03.038Z,18.68
2023-01-19T06:55:30.257Z,18.73
2023-01-19T06:57:58.777Z,18.77
2023-01-19T07:00:26.316Z,18.82
2023-01-19T07:02:53.499Z,18.87
2023-01-19T07:05:22.338Z,18.90
2023-01-19T07:07:52.265Z,18.94
2023-01-19T07:10:19.205Z,18.97
2023-01-19T07:12:47.728Z,19.02
2023-01-19T07:15:16.710Z,19.05
2023-01-19T07:17:44.237Z,19.12
2023-01-19T07:20:14.577Z,19.16
2023-01-19T07:22:42.117Z,19.18
2023-01-19T07:25:09.824Z,19.22
2023-01-19T07:27:36.728Z,19.25
2023-01-19T07:30:04.853Z,19.27
2023-01-19T07:32:31.882Z,19.30
2023-01-19T07:34:59.011Z,19.31
2023-01-19T07:37:25.980Z,19.35
2023-01-19T07:39:52.889Z,19.39
2023-01-19T07:42:19.802Z,19.40
2023-01-19T07:44:47.028Z,19.45
2023-01-19T07:47:14.166Z,19.47
2023-01-19T07:49:41.135Z,19.47
2023-01-19T07:52:08.159Z,19.51
2023-01-19T07:54:35.167Z,19.54
2023-01-19T07:57:02.480Z,19.56
2023-01-19T07:59:30.616Z,19.59
2023-01-19T08:01:59.860Z,19.63
2023-01-19T08:04:27.385Z,19.16
2023-01-19T08:06:55.673Z,19.35
2023-01-19T08:09:23.168Z,19.46
2023-01-19T08:11:50.185Z,19.51
2023-01-19T08:14:17.288Z,19.52
2023-01-19T08:16:44.347Z,19.56
2023-01-19T08:19:11.706Z,19.58
2023-01-19T08:21:39.395Z,19.60
2023-01-19T08:24:06.797Z,19.62
2023-01-19T08:26:35.314Z,19.64
2023-01-19T08:29:04.188Z,19.66
2023-01-19T08:31:31.395Z,19.66
2023-01-19T08:33:58.536Z,19.70
2023-01-19T08:36:25.662Z,19.71
2023-01-19T08:38:52.924Z,19.72
2023-01-19T08:41:20.287Z,19.74
2023-01-19T08:43:47.515Z,19.75
2023-01-19T08:46:17.839Z,19.76
2023-01-19T08:48:45.593Z,19.77
2023-01-19T08:51:13.163Z,19.76
2023-01-19T08:53:40.195Z,19.77
2023-01-19T08:56:12.614Z,19.77
2023-01-19T08:58:41.460Z,19.76
2023-01-19T09:01:09.180Z,19.75
2023-01-19T09:03:36.933Z,19.76
2023-01-19T09:06:07.237Z,19.75
2023-01-19T09:08:34.343Z,19.74
2023-01-19T09:11:01.811Z,19.72
2023-01-19T09:13:29.000Z,19.69
2023-01-19T09:15:56.252Z,19.69
2023-01-19T09:18:23.705Z,19.67
2023-01-19T09:20:51.309Z,19.65
2023-01-19T09:23:19.872Z,19.61
2023-01-19T09:25:47.599Z,19.61
2023-01-19T09:28:15.907Z,19.56
2023-01-19T09:30:43.604Z,19.54
2023-01-19T09:33:11.887Z,19.53
2023-01-19T09:35:39.705Z,19.48
2023-01-19T09:38:09.290Z,19.45
2023-01-19T09:40:42.264Z,19.44
2023-01-19T09:43:12.710Z,19.40
2023-01-19T09:45:46.532Z,19.38
2023-01-19T09:48:16.584Z,19.35
2023-01-19T09:50:47.792Z,19.32
2023-01-19T09:53:19.201Z,19.28
2023-01-19T09:55:46.321Z,19.27
2023-01-19T09:58:16.615Z,19.23
2023-01-19T10:00:47.956Z,19.20
2023-01-19T10:03:16.575Z,19.19
2023-01-19T10:05:45.172Z,19.17
2023-01-19T10:08:18.789Z,19.10
2023-01-19T10:10:48.620Z,19.09
2023-01-19T10:13:17.335Z,19.07
2023-01-19T10:15:50.560Z,19.03
2023-01-19T10:18:17.912Z,18.97
2023-01-19T10:20:47.999Z,18.93
2023-01-19T10:23:18.276Z,18.90
2023-01-19T10:25:45.688Z,18.88
2023-01-19T10:28:14.149Z,18.86
2023-01-19T10:30:43.215Z,18.83
2023-01-19T10:33:12.849Z,18.80
2023-01-19T10:35:39.982Z,18.76
2023-01-19T10:38:12.510Z,18.71
2023-01-19T10:40:48.074Z,18.70
2023-01-19T10:43:18.189Z,18.67
2023-01-19T10:45:50.380Z,18.62
2023-01-19T10:48:17.568Z,18.58
2023-01-19T10:50:44.743Z,18.56
2023-01-19T10:53:14.928Z,18.57
2023-01-19T10:55:42.207Z,18.53
2023-01-19T10:58:27.517Z,18.51
2023-01-19T11:00:54.831Z,18.52
2023-01-19T11:03:23.596Z,18.43
2023-01-19T11:05:51.215Z,18.45
2023-01-19T11:08:21.276Z,18.44
2023-01-19T11:10:53.134Z,18.41
2023-01-19T11:13:20.271Z,18.40
2023-01-19T11:15:47.633Z,18.38
2023-01-19T11:18:17.901Z,18.34
2023-01-19T11:20:48.220Z,18.33
2023-01-19T11:23:16.304Z,18.29
2023-01-19T11:25:46.601Z,18.30
2023-01-19T11:28:16.827Z,18.27
2023-01-19T11:30:54.461Z,18.23
2023-01-19T11:33:24.422Z,18.24
2023-01-19T11:35:52.048Z,18.19
2023-01-19T11:38:20.914Z,18.17
2023-01-19T11:40:51.154Z,18.12
2023-01-19T11:43:18.373Z,18.11
2023-01-19T11:45:46.426Z,18.07
2023-01-19T11:48:19.160Z,18.08
2023-01-19T11:50:46.439Z,18.06
2023-01-19T11:53:16.458Z,18.07
2023-01-19T11:55:49.763Z,18.05
2023-01-19T11:58:17.698Z,18.01
2023-01-19T12:00:47.692Z,17.98
2023-01-19T12:03:18.646Z,17.97
2023-01-19T12:05:49.266Z,17.92
2023-01-19T12:08:19.628Z,17.90
2023-01-19T12:10:48.160Z,17.88
2023-01-19T12:13:20.110Z,17.88
2023-01-19T12:15:48.827Z,17.85
2023-01-19T12:18:20.547Z,17.83
2023-01-19T12:20:49.998Z,17.81
2023-01-19T12:23:25.492Z,17.78
2023-01-19T12:25:55.765Z,17.75
2023-01-19T12:28:27.862Z,17.75
2023-01-19T12:30:55.785Z,17.71
2023-01-19T12:33:26.075Z,17.71
2023-01-19T12:35:57.579Z,17.72
2023-01-19T12:38:33.237Z,17.70
2023-01-19T12:41:03.474Z,17.69
2023-01-19T12:43:30.487Z,17.66
2023-01-19T12:45:57.673Z,17.65
2023-01-19T12:48:25.589Z,17.64
2023-01-19T12:50:52.821Z,17.62
2023-01-19T12:53:21.075Z,17.63
2023-01-19T12:55:58.273Z,17.60
2023-01-19T12:58:26.195Z,17.60
2023-01-19T13:01:12.940Z,17.59
2023-01-19T13:03:43.285Z,17.58
2023-01-19T13:06:10.437Z,17.56
2023-01-19T13:08:40.542Z,17.57
2023-01-19T13:11:10.747Z,17.53
2023-01-19T13:13:38.333Z,17.54
2023-01-19T13:16:08.398Z,17.51
2023-01-19T13:18:41.166Z,17.52
2023-01-19T13:21:09.801Z,17.51
2023-01-19T13:23:39.916Z,17.51
2023-01-19T13:26:07.669Z,17.49
2023-01-19T13:28:38.363Z,17.48
2023-01-19T13:31:07.337Z,17.47
2023-01-19T13:33:40.941Z,17.47
2023-01-19T13:36:17.236Z,17.48
2023-01-19T13:38:44.436Z,17.46
2023-01-19T13:41:15.528Z,17.45
2023-01-19T13:43:43.494Z,17.45
2023-01-19T13:46:12.030Z,17.47
2023-01-19T13:48:39.514Z,17.44
2023-01-19T13:51:07.825Z,17.45
2023-01-19T13:53:35.098Z,17.44
2023-01-19T13:56:05.118Z,17.44
2023-01-19T13:58:32.428Z,17.41
2023-01-19T14:00:59.578Z,17.39
2023-01-19T14:03:27.146Z,17.41
2023-01-19T14:05:55.073Z,17.40
2023-01-19T14:08:23.124Z,17.39
2023-01-19T14:10:53.377Z,17.36
2023-01-19T14:13:22.023Z,17.35
2023-01-19T14:15:51.719Z,17.34
2023-01-19T14:18:19.147Z,17.34
2023-01-19T14:20:49.371Z,17.32
2023-01-19T14:23:24.052Z,17.32
2023-01-19T14:25:51.134Z,17.30
2023-01-19T14:28:21.149Z,17.28
2023-01-19T14:30:51.350Z,17.25
2023-01-19T14:33:21.771Z,17.25
2023-01-19T14:35:48.804Z,17.23
2023-01-19T14:38:16.362Z,17.19
2023-01-19T14:40:44.566Z,17.17
2023-01-19T14:43:13.539Z,17.18
2023-01-19T14:45:41.784Z,17.15
2023-01-19T14:48:11.986Z,17.17
2023-01-19T14:50:44.221Z,17.16
2023-01-19T14:53:16.779Z,17.13
2023-01-19T14:55:44.206Z,17.12
2023-01-19T14:58:13.685Z,17.10
2023-01-19T15:00:41.191Z,17.08
2023-01-19T15:03:10.295Z,17.06
2023-01-19T15:05:39.288Z,17.01
2023-01-19T15:08:07.520Z,17.02
2023-01-19T15:10:35.767Z,17.00
2023-01-19T15:13:02.860Z,16.98
2023-01-19T15:15:31.947Z,16.96
2023-01-19T15:18:00.400Z,16.93
2023-01-19T15:20:28.063Z,16.88
2023-01-19T15:22:55.232Z,16.89
2023-01-19T15:25:26.239Z,16.86
2023-01-19T15:27:53.451Z,16.84
2023-01-19T15:30:24.032Z,16.83
2023-01-19T15:32:51.304Z,16.84
2023-01-19T15:35:20.142Z,16.83
2023-01-19T15:37:47.819Z,16.81
2023-01-19T15:40:15.133Z,16.83
2023-01-19T15:42:42.618Z,16.82
2023-01-19T15:45:12.915Z,16.85
2023-01-19T15:47:40.101Z,16.85
2023-01-19T15:50:08.150Z,16.88
2023-01-19T15:52:35.159Z,16.88
2023-01-19T15:55:02.422Z,16.90
2023-01-19T15:57:29.622Z,16.93
2023-01-19T15:59:56.759Z,16.98
2023-01-19T16:02:23.803Z,17.00
2023-01-19T16:04:50.850Z,17.06
2023-01-19T16:07:17.981Z,17.11
2023-01-19T16:09:45.311Z,17.15
2023-01-19T16:12:12.626Z,17.20
2023-01-19T16:14:39.781Z,17.25
2023-01-19T16:17:07.148Z,17.28
2023-01-19T16:19:34.225Z,17.38
2023-01-19T16:22:01.319Z,17.40
2023-01-19T16:24:28.598Z,17.42
2023-01-19T16:26:55.686Z,17.47
2023-01-19T16:29:22.835Z,17.52
2023-01-19T16:31:50.112Z,17.57
2023-01-19T16:34:18.472Z,17.60
2023-01-19T16:36:45.637Z,17.66
2023-01-19T16:39:14.276Z,17.70
2023-01-19T16:41:41.961Z,17.76
2023-01-19T16:44:10.314Z,17.80
2023-01-19T16:46:39.498Z,17.86
2023-01-19T16:49:11.334Z,17.91
2023-01-19T16:51:38.780Z,17.95
2023-01-19T16:54:05.929Z,18.01
2023-01-19T16:56:33.246Z,18.06
2023-01-19T16:59:00.550Z,18.10
2023-01-19T17:01:29.254Z,18.15
2023-01-19T17:03:56.953Z,18.19
2023-01-19T17:06:24.440Z,18.25
2023-01-19T17:08:52.463Z,18.30
2023-01-19T17:11:22.291Z,18.35
2023-01-19T17:13:54.478Z,18.40
2023-01-19T17:16:22.494Z,18.43
2023-01-19T17:18:49.948Z,18.47
2023-01-19T17:21:18.476Z,18.51
2023-01-19T17:23:46.347Z,18.57
2023-01-19T17:26:13.986Z,18.60
2023-01-19T17:28:41.423Z,18.62
2023-01-19T17:31:11.224Z,18.69
2023-01-19T17:33:39.232Z,18.72
2023-01-19T17:36:07.817Z,18.76
2023-01-19T17:38:35.781Z,18.81
2023-01-19T17:41:02.989Z,18.84
2023-01-19T17:43:30.130Z,18.87
2023-01-19T17:45:57.622Z,18.91
2023-01-19T17:48:25.094Z,18.95
2023-01-19T17:50:54.458Z,18.97
2023-01-19T17:53:22.136Z,19.02
2023-01-19T17:55:49.477Z,19.06
2023-01-19T17:58:16.699Z,19.10
2023-01-19T18:00:43.865Z,19.11
2023-01-19T18:03:11.307Z,19.16
2023-01-19T18:05:38.723Z,19.19
2023-01-19T18:08:06.234Z,19.23
2023-01-19T18:10:33.748Z,19.25
2023-01-19T18:13:00.817Z,19.27
2023-01-19T18:15:28.218Z,19.33
2023-01-19T18:17:55.461Z,19.33
2023-01-19T18:20:23.103Z,19.35
2023-01-19T18:22:50.369Z,19.37
2023-01-19T18:25:17.514Z,19.42
2023-01-19T18:27:44.800Z,19.45
2023-01-19T18:30:12.472Z,19.49
2023-01-19T18:32:40.190Z,19.47
2023-01-19T18:35:07.717Z,19.50
2023-01-19T18:37:35.020Z,19.51
2023-01-19T18:40:04.632Z,19.51
2023-01-19T18:42:34.037Z,19.54
2023-01-19T18:45:02.215Z,19.55
2023-01-19T18:47:29.537Z,19.56
2023-01-19T18:49:56.554Z,19.57
2023-01-19T18:52:23.900Z,19.60
2023-01-19T18:54:50.914Z,19.60
2023-01-19T18:57:19.213Z,19.65
2023-01-19T18:59:47.793Z,19.66
2023-01-19T19:02:15.198Z,19.66
2023-01-19T19:04:42.750Z,19.71
2023-01-19T19:07:09.849Z,19.72
2023-01-19T19:09:36.951Z,19.75
2023-01-19T19:12:04.131Z,19.77
2023-01-19T19:14:31.308Z,19.80
2023-01-19T19:16:58.943Z,19.79
2023-01-19T19:19:26.029Z,19.83
2023-01-19T19:21:54.115Z,19.85
2023-01-19T19:24:21.162Z,19.88
2023-01-19T19:26:48.208Z,19.89
2023-01-19T19:29:15.494Z,19.91
2023-01-19T19:31:42.698Z,19.91
2023-01-19T19:34:12.743Z,19.96
2023-01-19T19:36:39.740Z,19.98
2023-01-19T19:39:06.886Z,20.02
2023-01-19T19:41:34.251Z,20.02
2023-01-19T19:44:01.302Z,20.03
2023-01-19T19:46:28.511Z,20.05
2023-01-19T19:48:55.652Z,20.07
2023-01-19T19:51:25.790Z,20.10
2023-01-19T19:53:54.454Z,20.09
2023-01-19T19:56:23.202Z,20.13
2023-01-19T19:58:51.584Z,20.12
2023-01-19T20:01:19.769Z,20.14
2023-01-19T20:03:47.147Z,20.12
2023-01-19T20:06:15.649Z,20.12
2023-01-19T20:08:42.663Z,20.11
2023-01-19T20:11:12.608Z,20.09
2023-01-19T20:13:40.688Z,20.07
2023-01-19T20:16:10.743Z,20.06
2023-01-19T20:18:39.646Z,20.01
2023-01-19T20:21:10.551Z,19.99
2023-01-19T20:23:38.955Z,19.98
2023-01-19T20:26:08.873Z,19.96
2023-01-19T20:28:37.261Z,19.92
2023-01-19T20:31:07.685Z,19.91
2023-01-19T20:33:35.022Z,19.89
2023-01-19T20:36:02.207Z,19.85
2023-01-19T20:38:29.913Z,19.82
2023-01-19T20:40:56.972Z,19.79
2023-01-19T20:43:24.364Z,19.76
2023-01-19T20:45:53.167Z,19.74
2023-01-19T20:48:20.441Z,19.69
2023-01-19T20:50:47.884Z,19.67
2023-01-19T20:53:15.251Z,19.67
2023-01-19T20:55:42.494Z,19.62
2023-01-19T20:58:09.598Z,19.61
2023-01-19T21:00:37.092Z,19.61
2023-01-19T21:03:04.813Z,19.57
2023-01-19T21:05:32.079Z,19.53
2023-01-19T21:07:59.301Z,19.50
2023-01-19T21:10:26.831Z,19.48
2023-01-19T21:12:54.138Z,19.48
2023-01-19T21:15:21.566Z,19.44
2023-01-19T21:17:49.278Z,19.44
2023-01-19T21:20:17.548Z,19.41
2023-01-19T21:22:45.085Z,19.38
2023-01-19T21:25:12.655Z,19.35
2023-01-19T21:27:40.070Z,19.32
2023-01-19T21:30:07.734Z,19.28
2023-01-19T21:32:34.992Z,19.26
2023-01-19T21:35:02.707Z,19.23
2023-01-19T21:37:30.989Z,19.17
2023-01-19T21:39:58.148Z,19.14
2023-01-19T21:42:25.379Z,19.07
2023-01-19T21:44:52.510Z,19.02
2023-01-19T21:47:19.904Z,18.94
2023-01-19T21:49:47.100Z,18.89
2023-01-19T21:52:14.258Z,18.83
2023-01-19T21:54:41.557Z,18.81
2023-01-19T21:57:08.609Z,18.78
2023-01-19T21:59:35.748Z,18.77
2023-01-19T22:02:03.167Z,18.73
2023-01-19T22:04:30.485Z,18.71
2023-01-19T22:06:57.539Z,18.61
2023-01-19T22:09:24.648Z,18.60
2023-01-19T22:11:52.040Z,18.57
2023-01-19T22:14:19.221Z,18.53
2023-01-19T22:16:46.692Z,18.52
2023-01-19T22:19:14.790Z,18.49
2023-01-19T22:21:42.038Z,18.46
2023-01-19T22:24:09.301Z,18.39
2023-01-19T22:26:37.318Z,18.33
2023-01-19T22:29:05.346Z,18.31
2023-01-19T22:31:32.923Z,18.36
2023-01-19T22:34:00.382Z,18.36
2023-01-19T22:36:30.324Z,18.39
2023-01-19T22:39:00.192Z,18.38
2023-01-19T22:41:29.050Z,18.39
2023-01-19T22:43:57.307Z,18.43
2023-01-19T22:46:25.813Z,18.45
2023-01-19T22:48:53.442Z,18.46
2023-01-19T22:51:22.030Z,18.49
2023-01-19T22:53:49.298Z,18.52
2023-01-19T22:56:19.434Z,18.54
2023-01-19T22:58:46.911Z,18.59
2023-01-19T23:01:15.881Z,18.63
2023-01-19T23:03:43.280Z,18.66
2023-01-19T23:06:12.026Z,18.71
2023-01-19T23:08:39.262Z,18.75
2023-01-19T23:11:07.284Z,18.80
2023-01-19T23:13:42.315Z,18.84
2023-01-19T23:16:10.373Z,18.87
2023-01-19T23:18:37.748Z,18.91
2023-01-19T23:21:05.830Z,18.96
2023-01-19T23:23:33.390Z,18.99
2023-01-19T23:26:04.945Z,19.04
2023-01-19T23:28:31.953Z,19.08
2023-01-19T23:30:59.108Z,19.12
2023-01-19T23:33:26.176Z,19.16
2023-01-19T23:35:55.428Z,19.20
2023-01-19T23:38:22.710Z,19.24
2023-01-19T23:40:49.766Z,19.28
2023-01-19T23:43:16.823Z,19.32
2023-01-19T23:45:43.850Z,19.36
2023-01-19T23:48:10.872Z,19.40
2023-01-19T23:50:39.479Z,19.44
2023-01-19T23:53:06.479Z,19.47
2023-01-19T23:55:33.538Z,19.49
2023-01-19T23:58:00.468Z,19.50
